sensor_id;sensor_type;location;lat;lon;timestamp;temperature;humidity
20512;DHT22;10414;52.074;5.126;2023-02-11T00:01:57;7.90;99.90
20512;DHT22;10414;52.074;5.126;2023-02-11T00:04:25;7.90;99.90
20512;DHT22;10414;52.074;5.126;2023-02-11T00:06:52;7.80;99.90
20512;DHT22;10414;52.074;5.126;2023-02-11T00:09:19;7.90;99.90
20512;DHT22;10414;52.074;5.126;2023-02-11T00:11:47;8.00;99.90
20512;DHT22;10414;52.074;5.126;2023-02-11T00:14:14;7.90;99.90
20512;DHT22;10414;52.074;5.126;2023-02-11T00:16:41;8.00;99.90
20512;DHT22;10414;52.074;5.126;2023-02-11T00:19:08;7.90;99.90
20512;DHT22;10414;52.074;5.126;2023-02-11T00:21:35;7.80;99.90
20512;DHT22;10414;52.074;5.126;2023-02-11T00:24:02;7.80;99.90
20512;DHT22;10414;52.074;5.126;2023-02-11T00:26:32;7.80;99.90
20512;DHT22;10414;52.074;5.126;2023-02-11T00:29:01;7.80;99.90
20512;DHT22;10414;52.074;5.126;2023-02-11T00:31:28;7.80;99.90
20512;DHT22;10414;52.074;5.126;2023-02-11T00:33:55;7.80;99.90
20512;DHT22;10414;52.074;5.126;2023-02-11T00:36:24;7.70;99.90
20512;DHT22;10414;52.074;5.126;2023-02-11T00:38:52;7.70;99.90
20512;DHT22;10414;52.074;5.126;2023-02-11T00:41:20;7.70;99.90
20512;DHT22;10414;52.074;5.126;2023-02-11T00:43:48;7.90;99.90
20512;DHT22;10414;52.074;5.126;2023-02-11T00:46:16;7.80;99.90
20512;DHT22;10414;52.074;5.126;2023-02-11T00:48:43;7.70;99.90
20512;DHT22;10414;52.074;5.126;2023-02-11T00:51:11;7.60;99.90
20512;DHT22;10414;52.074;5.126;2023-02-11T00:53:38;7.90;99.90
20512;DHT22;10414;52.074;5.126;2023-02-11T00:56:06;7.90;99.90
20512;DHT22;10414;52.074;5.126;2023-02-11T00:58:33;7.90;99.90
20512;DHT22;10414;52.074;5.126;2023-02-11T01:01:00;7.90;99.90
20512;DHT22;10414;52.074;5.126;2023-02-11T01:03:28;8.10;99.90
20512;DHT22;10414;52.074;5.126;2023-02-11T01:05:55;7.90;99.90
20512;DHT22;10414;52.074;5.126;2023-02-11T01:08:22;7.90;99.90
20512;DHT22;10414;52.074;5.126;2023-02-11T01:10:56;7.90;99.90
20512;DHT22;10414;52.074;5.126;2023-02-11T01:13:23;7.80;99.90
20512;DHT22;10414;52.074;5.126;2023-02-11T01:15:50;7.90;99.90
20512;DHT22;10414;52.074;5.126;2023-02-11T01:18:17;8.00;99.90
20512;DHT22;10414;52.074;5.126;2023-02-11T01:20:45;7.80;99.90
20512;DHT22;10414;52.074;5.126;2023-02-11T01:23:12;7.70;99.90
20512;DHT22;10414;52.074;5.126;2023-02-11T01:25:39;7.70;99.90
20512;DHT22;10414;52.074;5.126;2023-02-11T01:28:06;7.80;99.90
20512;DHT22;10414;52.074;5.126;2023-02-11T01:30:32;7.80;99.90
20512;DHT22;10414;52.074;5.126;2023-02-11T01:32:59;7.80;99.90
20512;DHT22;10414;52.074;5.126;2023-02-11T01:35:26;7.70;99.90
20512;DHT22;10414;52.074;5.126;2023-02-11T01:37:54;7.70;99.90
20512;DHT22;10414;52.074;5.126;2023-02-11T01:40:21;7.70;99.90
20512;DHT22;10414;52.074;5.126;2023-02-11T01:42:48;7.70;99.90
20512;DHT22;10414;52.074;5.126;2023-02-11T01:45:41;7.80;99.90
20512;DHT22;10414;52.074;5.126;2023-02-11T01:48:15;7.90;99.90
20512;DHT22;10414;52.074;5.126;2023-02-11T01:50:44;7.80;99.90
20512;DHT22;10414;52.074;5.126;2023-02-11T01:53:15;7.80;99.90
20512;DHT22;10414;52.074;5.126;2023-02-11T01:56:01;7.90;99.90
20512;DHT22;10414;52.074;5.126;2023-02-11T01:58:46;7.90;99.90
20512;DHT22;10414;52.074;5.126;2023-02-11T02:01:18;7.70;99.90
20512;DHT22;10414;52.074;5.126;2023-02-11T02:03:52;7.60;99.90
20512;DHT22;10414;52.074;5.126;2023-02-11T02:06:26;7.50;99.90
20512;DHT22;10414;52.074;5.126;2023-02-11T02:09:02;7.40;99.90
20512;DHT22;10414;52.074;5.126;2023-02-11T02:11:30;7.30;99.90
20512;DHT22;10414;52.074;5.126;2023-02-11T02:13:57;7.40;99.90
20512;DHT22;10414;52.074;5.126;2023-02-11T02:16:29;7.20;99.90
20512;DHT22;10414;52.074;5.126;2023-02-11T02:19:08;7.10;99.90
20512;DHT22;10414;52.074;5.126;2023-02-11T02:22:09;7.40;99.90
20512;DHT22;10414;52.074;5.126;2023-02-11T02:24:57;7.20;99.90
20512;DHT22;10414;52.074;5.126;2023-02-11T02:27:36;7.30;99.90
20512;DHT22;10414;52.074;5.126;2023-02-11T02:30:45;7.30;99.90
20512;DHT22;10414;52.074;5.126;2023-02-11T02:33:32;7.30;99.90
20512;DHT22;10414;52.074;5.126;2023-02-11T02:36:07;7.30;99.90
20512;DHT22;10414;52.074;5.126;2023-02-11T02:38:38;7.40;99.90
20512;DHT22;10414;52.074;5.126;2023-02-11T02:41:08;7.30;99.90
20512;DHT22;10414;52.074;5.126;2023-02-11T02:43:39;7.00;99.90
20512;DHT22;10414;52.074;5.126;2023-02-11T02:46:14;6.90;99.90
20512;DHT22;10414;52.074;5.126;2023-02-11T02:48:43;6.90;99.90
20512;DHT22;10414;52.074;5.126;2023-02-11T02:51:41;6.80;99.90
20512;DHT22;10414;52.074;5.126;2023-02-11T02:54:28;6.90;99.90
20512;DHT22;10414;52.074;5.126;2023-02-11T02:57:07;6.90;99.90
20512;DHT22;10414;52.074;5.126;2023-02-11T02:59:46;6.80;99.90
20512;DHT22;10414;52.074;5.126;2023-02-11T03:02:25;6.70;99.90
20512;DHT22;10414;52.074;5.126;2023-02-11T03:04:58;6.70;99.90
20512;DHT22;10414;52.074;5.126;2023-02-11T03:07:34;6.80;99.90
20512;DHT22;10414;52.074;5.126;2023-02-11T03:10:08;6.70;99.90
20512;DHT22;10414;52.074;5.126;2023-02-11T03:12:36;6.60;99.90
20512;DHT22;10414;52.074;5.126;2023-02-11T03:15:06;6.60;99.90
20512;DHT22;10414;52.074;5.126;2023-02-11T03:17:34;6.60;99.90
20512;DHT22;10414;52.074;5.126;2023-02-11T03:20:05;6.70;99.90
20512;DHT22;10414;52.074;5.126;2023-02-11T03:22:35;6.60;99.90
20512;DHT22;10414;52.074;5.126;2023-02-11T03:25:03;6.50;99.90
20512;DHT22;10414;52.074;5.126;2023-02-11T03:27:36;6.50;99.90
20512;DHT22;10414;52.074;5.126;2023-02-11T03:30:08;6.60;99.90
20512;DHT22;10414;52.074;5.126;2023-02-11T03:32:39;6.60;99.90
20512;DHT22;10414;52.074;5.126;2023-02-11T03:35:12;6.70;99.90
20512;DHT22;10414;52.074;5.126;2023-02-11T03:37:44;6.60;99.90
20512;DHT22;10414;52.074;5.126;2023-02-11T03:40:18;6.60;99.90
20512;DHT22;10414;52.074;5.126;2023-02-11T03:42:50;6.60;99.90
20512;DHT22;10414;52.074;5.126;2023-02-11T03:45:21;6.60;99.90
20512;DHT22;10414;52.074;5.126;2023-02-11T03:47:51;6.60;99.90
20512;DHT22;10414;52.074;5.126;2023-02-11T03:50:20;6.60;99.90
20512;DHT22;10414;52.074;5.126;2023-02-11T03:52:48;6.60;99.90
20512;DHT22;10414;52.074;5.126;2023-02-11T03:55:18;6.60;99.90
20512;DHT22;10414;52.074;5.126;2023-02-11T03:57:46;6.60;99.90
20512;DHT22;10414;52.074;5.126;2023-02-11T04:00:14;6.60;99.90
20512;DHT22;10414;52.074;5.126;2023-02-11T04:02:41;6.60;99.90
20512;DHT22;10414;52.074;5.126;2023-02-11T04:05:11;6.70;99.90
20512;DHT22;10414;52.074;5.126;2023-02-11T04:07:40;6.70;99.90
20512;DHT22;10414;52.074;5.126;2023-02-11T04:10:07;6.80;99.90
20512;DHT22;10414;52.074;5.126;2023-02-11T04:12:34;6.90;99.90
20512;DHT22;10414;52.074;5.126;2023-02-11T04:15:01;6.90;99.90
20512;DHT22;10414;52.074;5.126;2023-02-11T04:17:27;6.90;99.90
20512;DHT22;10414;52.074;5.126;2023-02-11T04:19:54;7.00;99.90
20512;DHT22;10414;52.074;5.126;2023-02-11T04:22:21;7.00;99.90
20512;DHT22;10414;52.074;5.126;2023-02-11T04:24:49;6.90;99.90
20512;DHT22;10414;52.074;5.126;2023-02-11T04:27:16;6.90;99.90
20512;DHT22;10414;52.074;5.126;2023-02-11T04:29:43;6.90;99.90
20512;DHT22;10414;52.074;5.126;2023-02-11T04:32:10;7.10;99.90
20512;DHT22;10414;52.074;5.126;2023-02-11T04:34:37;7.30;99.90
20512;DHT22;10414;52.074;5.126;2023-02-11T04:37:04;7.20;99.90
20512;DHT22;10414;52.074;5.126;2023-02-11T04:39:31;7.20;99.90
20512;DHT22;10414;52.074;5.126;2023-02-11T04:42:00;7.20;99.90
20512;DHT22;10414;52.074;5.126;2023-02-11T04:44:27;7.20;99.90
20512;DHT22;10414;52.074;5.126;2023-02-11T04:46:53;7.10;99.90
20512;DHT22;10414;52.074;5.126;2023-02-11T04:49:20;7.00;99.90
20512;DHT22;10414;52.074;5.126;2023-02-11T04:51:47;7.10;99.90
20512;DHT22;10414;52.074;5.126;2023-02-11T04:54:14;7.20;99.90
20512;DHT22;10414;52.074;5.126;2023-02-11T04:56:41;7.30;99.90
20512;DHT22;10414;52.074;5.126;2023-02-11T04:59:11;7.30;99.90
20512;DHT22;10414;52.074;5.126;2023-02-11T05:01:38;7.40;99.90
20512;DHT22;10414;52.074;5.126;2023-02-11T05:04:05;7.50;99.90
20512;DHT22;10414;52.074;5.126;2023-02-11T05:06:31;7.40;99.90
20512;DHT22;10414;52.074;5.126;2023-02-11T05:08:58;7.50;99.90
20512;DHT22;10414;52.074;5.126;2023-02-11T05:11:25;7.60;99.90
20512;DHT22;10414;52.074;5.126;2023-02-11T05:13:52;7.60;99.90
20512;DHT22;10414;52.074;5.126;2023-02-11T05:16:20;7.60;99.90
20512;DHT22;10414;52.074;5.126;2023-02-11T05:18:47;7.40;99.90
20512;DHT22;10414;52.074;5.126;2023-02-11T05:21:16;7.50;99.90
20512;DHT22;10414;52.074;5.126;2023-02-11T05:23:44;7.60;99.90
20512;DHT22;10414;52.074;5.126;2023-02-11T05:26:11;7.60;99.90
20512;DHT22;10414;52.074;5.126;2023-02-11T05:28:38;7.60;99.90
20512;DHT22;10414;52.074;5.126;2023-02-11T05:31:06;7.50;99.90
20512;DHT22;10414;52.074;5.126;2023-02-11T05:33:34;7.50;99.90
20512;DHT22;10414;52.074;5.126;2023-02-11T05:36:03;7.40;99.90
20512;DHT22;10414;52.074;5.126;2023-02-11T05:38:31;7.50;99.90
20512;DHT22;10414;52.074;5.126;2023-02-11T05:40:58;7.50;99.90
20512;DHT22;10414;52.074;5.126;2023-02-11T05:43:24;7.70;99.90
20512;DHT22;10414;52.074;5.126;2023-02-11T05:45:51;7.70;99.90
20512;DHT22;10414;52.074;5.126;2023-02-11T05:48:18;7.80;99.90
20512;DHT22;10414;52.074;5.126;2023-02-11T05:50:46;7.80;99.90
20512;DHT22;10414;52.074;5.126;2023-02-11T05:53:13;8.00;99.90
20512;DHT22;10414;52.074;5.126;2023-02-11T05:55:40;8.00;99.90
20512;DHT22;10414;52.074;5.126;2023-02-11T05:58:07;7.80;99.90
20512;DHT22;10414;52.074;5.126;2023-02-11T06:00:35;7.80;99.90
20512;DHT22;10414;52.074;5.126;2023-02-11T06:03:01;7.80;99.90
20512;DHT22;10414;52.074;5.126;2023-02-11T06:05:29;8.00;99.90
20512;DHT22;10414;52.074;5.126;2023-02-11T06:07:57;7.90;99.90
20512;DHT22;10414;52.074;5.126;2023-02-11T06:10:24;8.00;99.90
20512;DHT22;10414;52.074;5.126;2023-02-11T06:12:51;7.90;99.90
20512;DHT22;10414;52.074;5.126;2023-02-11T06:15:18;8.00;99.90
20512;DHT22;10414;52.074;5.126;2023-02-11T06:17:45;8.00;99.90
20512;DHT22;10414;52.074;5.126;2023-02-11T06:20:11;8.00;99.90
20512;DHT22;10414;52.074;5.126;2023-02-11T06:22:38;8.00;99.90
20512;DHT22;10414;52.074;5.126;2023-02-11T06:25:07;8.10;99.90
20512;DHT22;10414;52.074;5.126;2023-02-11T06:27:35;8.30;99.90
20512;DHT22;10414;52.074;5.126;2023-02-11T06:30:02;8.30;99.90
20512;DHT22;10414;52.074;5.126;2023-02-11T06:32:29;8.30;99.90
20512;DHT22;10414;52.074;5.126;2023-02-11T06:34:56;8.30;99.90
20512;DHT22;10414;52.074;5.126;2023-02-11T06:37:23;8.00;99.90
20512;DHT22;10414;52.074;5.126;2023-02-11T06:39:50;7.90;99.90
20512;DHT22;10414;52.074;5.126;2023-02-11T06:42:18;8.20;99.90
20512;DHT22;10414;52.074;5.126;2023-02-11T06:44:45;8.10;99.90
20512;DHT22;10414;52.074;5.126;2023-02-11T06:47:12;8.10;99.90
20512;DHT22;10414;52.074;5.126;2023-02-11T06:49:38;8.20;99.90
20512;DHT22;10414;52.074;5.126;2023-02-11T06:52:05;8.10;99.90
20512;DHT22;10414;52.074;5.126;2023-02-11T06:54:32;8.10;99.90
20512;DHT22;10414;52.074;5.126;2023-02-11T06:56:59;8.10;99.90
20512;DHT22;10414;52.074;5.126;2023-02-11T06:59:27;8.30;99.90
20512;DHT22;10414;52.074;5.126;2023-02-11T07:01:54;8.40;99.90
20512;DHT22;10414;52.074;5.126;2023-02-11T07:04:20;8.20;99.90
20512;DHT22;10414;52.074;5.126;2023-02-11T07:06:48;8.30;99.90
20512;DHT22;10414;52.074;5.126;2023-02-11T07:09:15;8.30;99.90
20512;DHT22;10414;52.074;5.126;2023-02-11T07:11:42;8.30;99.90
20512;DHT22;10414;52.074;5.126;2023-02-11T07:14:09;8.20;99.90
20512;DHT22;10414;52.074;5.126;2023-02-11T07:16:39;8.30;99.90
20512;DHT22;10414;52.074;5.126;2023-02-11T07:19:06;8.30;99.90
20512;DHT22;10414;52.074;5.126;2023-02-11T07:21:32;8.40;99.90
20512;DHT22;10414;52.074;5.126;2023-02-11T07:23:59;8.50;99.90
20512;DHT22;10414;52.074;5.126;2023-02-11T07:26:26;8.30;99.90
20512;DHT22;10414;52.074;5.126;2023-02-11T07:28:53;8.50;99.90
20512;DHT22;10414;52.074;5.126;2023-02-11T07:31:23;8.40;99.90
20512;DHT22;10414;52.074;5.126;2023-02-11T07:33:53;8.30;99.90
20512;DHT22;10414;52.074;5.126;2023-02-11T07:36:20;8.50;99.90
20512;DHT22;10414;52.074;5.126;2023-02-11T07:38:47;8.40;99.90
20512;DHT22;10414;52.074;5.126;2023-02-11T07:41:16;8.30;99.90
20512;DHT22;10414;52.074;5.126;2023-02-11T07:43:44;8.40;99.90
20512;DHT22;10414;52.074;5.126;2023-02-11T07:46:14;8.60;99.90
20512;DHT22;10414;52.074;5.126;2023-02-11T07:48:41;8.50;99.90
20512;DHT22;10414;52.074;5.126;2023-02-11T07:51:11;8.50;99.90
20512;DHT22;10414;52.074;5.126;2023-02-11T07:53:39;8.60;99.90
20512;DHT22;10414;52.074;5.126;2023-02-11T07:56:07;8.90;99.90
20512;DHT22;10414;52.074;5.126;2023-02-11T07:58:35;8.80;99.90
20512;DHT22;10414;52.074;5.126;2023-02-11T08:01:03;8.80;99.90
20512;DHT22;10414;52.074;5.126;2023-02-11T08:03:30;8.70;99.90
20512;DHT22;10414;52.074;5.126;2023-02-11T08:05:57;9.00;99.90
20512;DHT22;10414;52.074;5.126;2023-02-11T08:08:29;9.00;99.90
20512;DHT22;10414;52.074;5.126;2023-02-11T08:10:56;8.70;99.90
20512;DHT22;10414;52.074;5.126;2023-02-11T08:13:23;8.80;99.90
20512;DHT22;10414;52.074;5.126;2023-02-11T08:15:51;8.70;99.90
20512;DHT22;10414;52.074;5.126;2023-02-11T08:18:18;8.80;99.90
20512;DHT22;10414;52.074;5.126;2023-02-11T08:20:45;8.70;99.90
20512;DHT22;10414;52.074;5.126;2023-02-11T08:23:11;8.90;99.90
20512;DHT22;10414;52.074;5.126;2023-02-11T08:25:39;8.80;99.90
20512;DHT22;10414;52.074;5.126;2023-02-11T08:28:06;8.80;99.90
20512;DHT22;10414;52.074;5.126;2023-02-11T08:30:33;8.80;99.90
20512;DHT22;10414;52.074;5.126;2023-02-11T08:33:01;8.80;99.90
20512;DHT22;10414;52.074;5.126;2023-02-11T08:35:27;8.90;99.90
20512;DHT22;10414;52.074;5.126;2023-02-11T08:37:54;9.10;99.90
20512;DHT22;10414;52.074;5.126;2023-02-11T08:40:21;9.00;99.90
20512;DHT22;10414;52.074;5.126;2023-02-11T08:42:51;9.10;99.90
20512;DHT22;10414;52.074;5.126;2023-02-11T08:45:17;9.30;99.90
20512;DHT22;10414;52.074;5.126;2023-02-11T08:47:44;9.40;99.90
20512;DHT22;10414;52.074;5.126;2023-02-11T08:50:11;9.20;99.90
20512;DHT22;10414;52.074;5.126;2023-02-11T08:52:38;9.30;99.90
20512;DHT22;10414;52.074;5.126;2023-02-11T08:55:14;9.50;99.90
20512;DHT22;10414;52.074;5.126;2023-02-11T08:57:42;9.50;99.90
20512;DHT22;10414;52.074;5.126;2023-02-11T09:00:13;9.50;99.90
20512;DHT22;10414;52.074;5.126;2023-02-11T09:02:40;9.70;99.90
20512;DHT22;10414;52.074;5.126;2023-02-11T09:05:07;9.70;99.90
20512;DHT22;10414;52.074;5.126;2023-02-11T09:07:34;9.70;99.90
20512;DHT22;10414;52.074;5.126;2023-02-11T09:10:01;9.40;99.90
20512;DHT22;10414;52.074;5.126;2023-02-11T09:12:28;9.50;99.90
20512;DHT22;10414;52.074;5.126;2023-02-11T09:14:54;9.50;99.90
20512;DHT22;10414;52.074;5.126;2023-02-11T09:17:23;9.70;99.90
20512;DHT22;10414;52.074;5.126;2023-02-11T09:19:49;9.70;99.90
20512;DHT22;10414;52.074;5.126;2023-02-11T09:22:16;10.00;99.90
20512;DHT22;10414;52.074;5.126;2023-02-11T09:24:43;10.10;99.90
20512;DHT22;10414;52.074;5.126;2023-02-11T09:27:10;10.00;99.90
20512;DHT22;10414;52.074;5.126;2023-02-11T09:29:37;10.10;99.90
20512;DHT22;10414;52.074;5.126;2023-02-11T09:32:04;10.30;99.90
20512;DHT22;10414;52.074;5.126;2023-02-11T09:34:32;10.40;99.90
20512;DHT22;10414;52.074;5.126;2023-02-11T09:36:59;10.40;99.90
20512;DHT22;10414;52.074;5.126;2023-02-11T09:39:26;10.30;99.90
20512;DHT22;10414;52.074;5.126;2023-02-11T09:44:43;10.20;99.90
20512;DHT22;10414;52.074;5.126;2023-02-11T09:47:20;10.20;99.90
20512;DHT22;10414;52.074;5.126;2023-02-11T09:49:51;10.10;99.90
20512;DHT22;10414;52.074;5.126;2023-02-11T09:52:27;10.50;99.90
20512;DHT22;10414;52.074;5.126;2023-02-11T09:54:56;10.40;99.90
20512;DHT22;10414;52.074;5.126;2023-02-11T09:57:27;10.50;99.90
20512;DHT22;10414;52.074;5.126;2023-02-11T09:59:57;10.70;99.90
20512;DHT22;10414;52.074;5.126;2023-02-11T10:02:28;10.70;99.90
20512;DHT22;10414;52.074;5.126;2023-02-11T10:05:13;10.50;99.90
20512;DHT22;10414;52.074;5.126;2023-02-11T10:07:49;10.50;99.90
20512;DHT22;10414;52.074;5.126;2023-02-11T10:10:27;10.90;99.90
20512;DHT22;10414;52.074;5.126;2023-02-11T10:13:00;10.80;99.90
20512;DHT22;10414;52.074;5.126;2023-02-11T10:15:42;11.20;99.90
20512;DHT22;10414;52.074;5.126;2023-02-11T10:18:27;11.20;99.90
20512;DHT22;10414;52.074;5.126;2023-02-11T10:21:05;10.90;99.90
20512;DHT22;10414;52.074;5.126;2023-02-11T10:23:37;11.20;99.90
20512;DHT22;10414;52.074;5.126;2023-02-11T10:26:07;11.50;99.90
20512;DHT22;10414;52.074;5.126;2023-02-11T10:28:36;11.70;99.90
20512;DHT22;10414;52.074;5.126;2023-02-11T10:31:08;11.50;99.90
20512;DHT22;10414;52.074;5.126;2023-02-11T10:33:41;11.30;99.90
20512;DHT22;10414;52.074;5.126;2023-02-11T10:36:12;11.30;99.90
20512;DHT22;10414;52.074;5.126;2023-02-11T10:38:39;11.40;99.90
20512;DHT22;10414;52.074;5.126;2023-02-11T10:41:08;11.40;99.90
20512;DHT22;10414;52.074;5.126;2023-02-11T10:43:36;11.00;99.90
20512;DHT22;10414;52.074;5.126;2023-02-11T10:46:03;11.30;99.90
20512;DHT22;10414;52.074;5.126;2023-02-11T10:48:42;11.30;99.90
20512;DHT22;10414;52.074;5.126;2023-02-11T10:51:19;11.50;99.90
20512;DHT22;10414;52.074;5.126;2023-02-11T10:53:48;11.90;99.90
20512;DHT22;10414;52.074;5.126;2023-02-11T10:56:22;12.00;99.90
20512;DHT22;10414;52.074;5.126;2023-02-11T10:58:58;12.20;99.90
20512;DHT22;10414;52.074;5.126;2023-02-11T11:01:41;12.10;99.90
20512;DHT22;10414;52.074;5.126;2023-02-11T11:04:31;12.30;99.90
20512;DHT22;10414;52.074;5.126;2023-02-11T11:07:15;12.40;99.90
20512;DHT22;10414;52.074;5.126;2023-02-11T11:09:49;12.90;99.90
20512;DHT22;10414;52.074;5.126;2023-02-11T11:12:29;13.00;99.90
20512;DHT22;10414;52.074;5.126;2023-02-11T11:14:58;13.60;99.90
20512;DHT22;10414;52.074;5.126;2023-02-11T11:17:25;13.50;99.90
20512;DHT22;10414;52.074;5.126;2023-02-11T11:19:56;13.60;99.90
20512;DHT22;10414;52.074;5.126;2023-02-11T11:22:40;12.80;99.90
20512;DHT22;10414;52.074;5.126;2023-02-11T11:25:20;12.90;99.90
20512;DHT22;10414;52.074;5.126;2023-02-11T11:27:48;13.30;99.90
20512;DHT22;10414;52.074;5.126;2023-02-11T11:30:16;13.10;99.90
20512;DHT22;10414;52.074;5.126;2023-02-11T11:32:44;12.90;99.90
20512;DHT22;10414;52.074;5.126;2023-02-11T11:35:22;13.10;99.90
20512;DHT22;10414;52.074;5.126;2023-02-11T11:37:54;13.40;99.90
20512;DHT22;10414;52.074;5.126;2023-02-11T11:40:24;13.70;99.90
20512;DHT22;10414;52.074;5.126;2023-02-11T11:43:16;13.60;99.90
20512;DHT22;10414;52.074;5.126;2023-02-11T11:45:52;13.90;99.90
20512;DHT22;10414;52.074;5.126;2023-02-11T11:48:23;13.90;99.90
20512;DHT22;10414;52.074;5.126;2023-02-11T11:50:53;13.90;99.90
20512;DHT22;10414;52.074;5.126;2023-02-11T11:53:30;13.90;99.90
20512;DHT22;10414;52.074;5.126;2023-02-11T11:56:02;13.80;99.90
20512;DHT22;10414;52.074;5.126;2023-02-11T11:58:31;13.40;99.90
20512;DHT22;10414;52.074;5.126;2023-02-11T12:01:06;12.90;99.90
20512;DHT22;10414;52.074;5.126;2023-02-11T12:06:53;12.70;99.90
20512;DHT22;10414;52.074;5.126;2023-02-11T12:09:30;12.60;99.90
20512;DHT22;10414;52.074;5.126;2023-02-11T12:12:13;12.70;99.90
20512;DHT22;10414;52.074;5.126;2023-02-11T12:14:48;12.90;99.90
20512;DHT22;10414;52.074;5.126;2023-02-11T12:17:28;12.90;99.90
20512;DHT22;10414;52.074;5.126;2023-02-11T12:20:02;12.60;99.90
20512;DHT22;10414;52.074;5.126;2023-02-11T12:22:43;12.50;99.90
20512;DHT22;10414;52.074;5.126;2023-02-11T12:25:26;12.40;99.90
20512;DHT22;10414;52.074;5.126;2023-02-11T12:28:06;12.60;99.90
20512;DHT22;10414;52.074;5.126;2023-02-11T12:30:54;12.60;99.90
20512;DHT22;10414;52.074;5.126;2023-02-11T12:33:37;12.50;99.90
20512;DHT22;10414;52.074;5.126;2023-02-11T12:36:12;12.70;99.90
20512;DHT22;10414;52.074;5.126;2023-02-11T12:38:53;13.10;99.90
20512;DHT22;10414;52.074;5.126;2023-02-11T12:41:36;13.40;99.90
20512;DHT22;10414;52.074;5.126;2023-02-11T12:44:32;13.30;99.90
20512;DHT22;10414;52.074;5.126;2023-02-11T12:47:09;13.50;99.90
20512;DHT22;10414;52.074;5.126;2023-02-11T12:49:55;13.50;99.90
20512;DHT22;10414;52.074;5.126;2023-02-11T12:52:42;13.60;99.90
20512;DHT22;10414;52.074;5.126;2023-02-11T12:55:19;13.70;99.90
20512;DHT22;10414;52.074;5.126;2023-02-11T12:57:49;13.60;99.90
20512;DHT22;10414;52.074;5.126;2023-02-11T13:00:21;13.30;99.90
20512;DHT22;10414;52.074;5.126;2023-02-11T13:02:54;12.90;99.90
20512;DHT22;10414;52.074;5.126;2023-02-11T13:05:24;13.10;99.90
20512;DHT22;10414;52.074;5.126;2023-02-11T13:07:57;13.10;99.90
20512;DHT22;10414;52.074;5.126;2023-02-11T13:10:31;13.20;99.90
20512;DHT22;10414;52.074;5.126;2023-02-11T13:13:02;13.30;99.90
20512;DHT22;10414;52.074;5.126;2023-02-11T13:15:46;13.60;99.90
20512;DHT22;10414;52.074;5.126;2023-02-11T13:21:22;13.00;99.90
20512;DHT22;10414;52.074;5.126;2023-02-11T13:23:56;12.90;99.90
20512;DHT22;10414;52.074;5.126;2023-02-11T13:26:30;12.90;99.90
20512;DHT22;10414;52.074;5.126;2023-02-11T13:29:19;12.90;99.90
20512;DHT22;10414;52.074;5.126;2023-02-11T13:31:54;13.10;99.90
20512;DHT22;10414;52.074;5.126;2023-02-11T13:34:26;13.10;99.90
20512;DHT22;10414;52.074;5.126;2023-02-11T13:37:19;12.90;99.90
20512;DHT22;10414;52.074;5.126;2023-02-11T13:39:58;12.70;99.90
20512;DHT22;10414;52.074;5.126;2023-02-11T13:42:25;12.50;99.90
20512;DHT22;10414;52.074;5.126;2023-02-11T13:44:55;12.50;99.90
20512;DHT22;10414;52.074;5.126;2023-02-11T13:47:26;12.40;99.90
20512;DHT22;10414;52.074;5.126;2023-02-11T13:49:55;12.40;99.90
20512;DHT22;10414;52.074;5.126;2023-02-11T13:52:25;12.40;99.90
20512;DHT22;10414;52.074;5.126;2023-02-11T13:54:54;12.60;99.90
20512;DHT22;10414;52.074;5.126;2023-02-11T13:57:33;13.00;99.90
20512;DHT22;10414;52.074;5.126;2023-02-11T14:03:21;12.90;99.90
20512;DHT22;10414;52.074;5.126;2023-02-11T14:06:12;12.80;99.90
20512;DHT22;10414;52.074;5.126;2023-02-11T14:08:59;13.00;99.90
20512;DHT22;10414;52.074;5.126;2023-02-11T14:11:46;12.90;99.90
20512;DHT22;10414;52.074;5.126;2023-02-11T14:14:21;13.00;99.90
20512;DHT22;10414;52.074;5.126;2023-02-11T14:17:29;12.90;99.90
20512;DHT22;10414;52.074;5.126;2023-02-11T14:19:57;13.00;99.90
20512;DHT22;10414;52.074;5.126;2023-02-11T14:22:27;12.80;99.90
20512;DHT22;10414;52.074;5.126;2023-02-11T14:24:56;12.70;99.90
20512;DHT22;10414;52.074;5.126;2023-02-11T14:27:33;12.70;99.90
20512;DHT22;10414;52.074;5.126;2023-02-11T14:30:24;12.70;99.90
20512;DHT22;10414;52.074;5.126;2023-02-11T14:33:11;12.50;99.90
20512;DHT22;10414;52.074;5.126;2023-02-11T14:35:48;12.50;99.90
20512;DHT22;10414;52.074;5.126;2023-02-11T14:38:23;12.50;99.90
20512;DHT22;10414;52.074;5.126;2023-02-11T14:40:56;12.40;99.90
20512;DHT22;10414;52.074;5.126;2023-02-11T14:43:28;12.50;99.90
20512;DHT22;10414;52.074;5.126;2023-02-11T14:45:57;12.50;99.90
20512;DHT22;10414;52.074;5.126;2023-02-11T14:48:30;12.20;99.90
20512;DHT22;10414;52.074;5.126;2023-02-11T14:51:00;12.20;99.90
20512;DHT22;10414;52.074;5.126;2023-02-11T14:53:30;12.30;99.90
20512;DHT22;10414;52.074;5.126;2023-02-11T14:55:57;12.20;99.90
20512;DHT22;10414;52.074;5.126;2023-02-11T14:58:26;12.30;99.90
20512;DHT22;10414;52.074;5.126;2023-02-11T15:00:56;12.00;99.90
20512;DHT22;10414;52.074;5.126;2023-02-11T15:03:31;12.20;99.90
20512;DHT22;10414;52.074;5.126;2023-02-11T15:05:59;11.90;99.90
20512;DHT22;10414;52.074;5.126;2023-02-11T15:08:27;11.90;99.90
20512;DHT22;10414;52.074;5.126;2023-02-11T15:10:56;12.10;99.90
20512;DHT22;10414;52.074;5.126;2023-02-11T15:13:25;12.00;99.90
20512;DHT22;10414;52.074;5.126;2023-02-11T15:15:58;12.10;99.90
20512;DHT22;10414;52.074;5.126;2023-02-11T15:18:33;12.20;99.90
20512;DHT22;10414;52.074;5.126;2023-02-11T15:21:01;12.20;99.90
20512;DHT22;10414;52.074;5.126;2023-02-11T15:23:29;12.10;99.90
20512;DHT22;10414;52.074;5.126;2023-02-11T15:25:56;11.90;99.90
20512;DHT22;10414;52.074;5.126;2023-02-11T15:28:29;12.00;99.90
20512;DHT22;10414;52.074;5.126;2023-02-11T15:30:58;11.70;99.90
20512;DHT22;10414;52.074;5.126;2023-02-11T15:33:25;11.90;99.90
20512;DHT22;10414;52.074;5.126;2023-02-11T15:35:56;11.80;99.90
20512;DHT22;10414;52.074;5.126;2023-02-11T15:38:23;12.00;99.90
20512;DHT22;10414;52.074;5.126;2023-02-11T15:40:53;12.00;99.90
20512;DHT22;10414;52.074;5.126;2023-02-11T15:43:20;12.00;99.90
20512;DHT22;10414;52.074;5.126;2023-02-11T15:45:57;11.80;99.90
20512;DHT22;10414;52.074;5.126;2023-02-11T15:48:33;11.70;99.90
20512;DHT22;10414;52.074;5.126;2023-02-11T15:51:04;11.50;99.90
20512;DHT22;10414;52.074;5.126;2023-02-11T15:53:36;11.50;99.90
20512;DHT22;10414;52.074;5.126;2023-02-11T15:56:10;11.60;99.90
20512;DHT22;10414;52.074;5.126;2023-02-11T15:58:42;11.80;99.90
20512;DHT22;10414;52.074;5.126;2023-02-11T16:01:10;11.90;99.90
20512;DHT22;10414;52.074;5.126;2023-02-11T16:03:37;12.00;99.90
20512;DHT22;10414;52.074;5.126;2023-02-11T16:06:19;11.90;99.90
20512;DHT22;10414;52.074;5.126;2023-02-11T16:08:58;11.60;99.90
20512;DHT22;10414;52.074;5.126;2023-02-11T16:11:27;11.40;99.90
20512;DHT22;10414;52.074;5.126;2023-02-11T16:13:55;11.20;99.90
20512;DHT22;10414;52.074;5.126;2023-02-11T16:16:25;11.20;99.90
20512;DHT22;10414;52.074;5.126;2023-02-11T16:18:54;11.20;99.90